This is the latest recevied weather packets stored in our database for station/object PY2VE-13. If no packets are shown the sender has not sent any weather packets the latest 10 day(s).
| Time | Temp. | Humidity | Pressure | Rain* | Wind** | Luminosity | Snow |
|---|---|---|---|---|---|---|---|
| 1788196330 | 31.67° C | 39% | 1012.9 hPa | - | - | - | - |
| 1788195430 | 31.11° C | 39% | 1013.2 hPa | - | - | - | - |
| 1788194530 | 31.67° C | 38% | 1013.2 hPa | - | - | - | - |
| 1788193630 | 31.67° C | 40% | 1013.4 hPa | - | - | - | - |
| 1788192730 | 31.67° C | 40% | 1013.9 hPa | - | - | - | - |
| 1788190930 | 31.11° C | 40% | 1014.5 hPa | - | - | - | - |
| 1788190030 | 31.11° C | 40% | 1014.7 hPa | - | - | - | - |
| 1788188230 | 30.56° C | 41% | 1015.5 hPa | - | - | - | - |
| 1788187330 | 30.56° C | 41% | 1015.6 hPa | - | - | - | - |
| 1788186430 | 30.56° C | 42% | 1016 hPa | - | - | - | - |
| 1788185530 | 30° C | 44% | 1016.3 hPa | - | - | - | - |
| 1788184630 | 30° C | 45% | 1016.7 hPa | - | - | - | - |
| 1788183729 | 29.44° C | 46% | 1016.9 hPa | - | - | - | - |
| 1788182830 | 29.44° C | 46% | 1017.2 hPa | - | - | - | - |
| 1788181930 | 29.44° C | 47% | 1017.6 hPa | - | - | - | - |
| 1788181029 | 28.89° C | 48% | 1018 hPa | - | - | - | - |
| 1788180129 | 28.33° C | 49% | 1018.3 hPa | - | - | - | - |
| 1788179229 | 28.33° C | 49% | 1018.6 hPa | - | - | - | - |
| 1788178329 | 28.89° C | 48% | 1018.4 hPa | - | - | - | - |
| 1788177429 | 27.22° C | 52% | 1018.5 hPa | - | - | - | - |
| 1788176529 | 26.67° C | 54% | 1018.6 hPa | - | - | - | - |
| 1788175629 | 26.11° C | 56% | 1018.8 hPa | - | - | - | - |
| 1788174729 | 26.11° C | 55% | 1018.5 hPa | - | - | - | - |
| 1788173829 | 25.56° C | 58% | 1019 hPa | - | - | - | - |
| 1788172931 | 25.56° C | 58% | 1018.7 hPa | - | - | - | - |
* Rain since midnight (hover to see other rain measurements)
** Current wind speed in m/s (hover to see current wind gust speed)